createdAt,value
2022-12-03T00:00:15.126Z,98592.97
2022-12-03T00:03:03.298Z,98600.91
2022-12-03T00:05:51.467Z,98600.91
2022-12-03T00:08:39.528Z,98597.34
2022-12-03T00:11:27.551Z,98599.00
2022-12-03T00:14:15.516Z,98593.78
2022-12-03T00:17:05.104Z,98593.78
2022-12-03T00:19:52.919Z,98592.97
2022-12-03T00:22:40.971Z,98601.63
2022-12-03T00:25:29.094Z,98592.09
2022-12-03T00:28:17.078Z,98586.88
2022-12-03T00:31:05.542Z,98589.47
2022-12-03T00:33:55.694Z,98590.22
2022-12-03T00:36:43.781Z,98590.22
2022-12-03T00:39:31.818Z,98585.91
2022-12-03T00:42:19.848Z,98585.09
2022-12-03T00:45:10.478Z,98583.28
2022-12-03T00:47:58.356Z,98594.72
2022-12-03T00:50:47.861Z,98588.53
2022-12-03T00:53:36.055Z,98584.16
2022-12-03T00:56:23.843Z,98586.00
2022-12-03T00:59:12.003Z,98582.47
2022-12-03T01:02:00.255Z,98585.19
2022-12-03T01:04:48.114Z,98595.66
2022-12-03T01:07:37.283Z,98599.00
2022-12-03T01:10:25.532Z,98594.63
2022-12-03T01:13:13.605Z,98591.91
2022-12-03T01:16:01.673Z,98591.91
2022-12-03T01:18:52.347Z,98592.00
2022-12-03T01:21:40.142Z,98594.72
2022-12-03T01:24:29.983Z,98599.88
2022-12-03T01:27:17.905Z,98591.16
2022-12-03T01:30:07.115Z,98600.69
2022-12-03T01:32:53.981Z,98596.50
2022-12-03T01:35:42.240Z,98596.41
2022-12-03T01:38:30.369Z,98599.00
2022-12-03T01:41:21.871Z,98600.81
2022-12-03T01:44:17.426Z,98595.44
2022-12-03T01:47:07.649Z,98595.44
2022-12-03T01:50:00.891Z,98597.16
2022-12-03T01:52:49.308Z,98593.78
2022-12-03T01:55:37.980Z,98591.06
2022-12-03T01:58:29.926Z,98594.53
2022-12-03T02:01:19.785Z,98594.44
2022-12-03T02:04:07.986Z,98595.44
2022-12-03T02:06:55.803Z,98596.31
2022-12-03T02:09:43.901Z,98595.44
2022-12-03T02:12:35.731Z,98594.53
2022-12-03T02:15:25.060Z,98590.22
2022-12-03T02:18:13.324Z,98589.47
2022-12-03T02:21:11.877Z,98591.16
2022-12-03T02:24:08.409Z,98592.00
2022-12-03T02:26:57.650Z,98594.63
2022-12-03T02:29:48.050Z,98597.97
2022-12-03T02:32:36.139Z,98597.16
2022-12-03T02:35:26.012Z,98597.88
2022-12-03T02:38:18.574Z,98603.13
2022-12-03T02:41:09.570Z,98600.50
2022-12-03T02:43:58.018Z,98599.78
2022-12-03T02:46:45.979Z,98597.16
2022-12-03T02:49:34.004Z,98597.06
2022-12-03T02:52:22.224Z,98600.50
2022-12-03T02:55:11.442Z,98597.78
2022-12-03T02:57:59.628Z,98593.50
2022-12-03T03:00:49.455Z,98597.06
2022-12-03T03:03:38.944Z,98597.69
2022-12-03T03:06:27.426Z,98602.94
2022-12-03T03:09:15.222Z,98598.75
2022-12-03T03:12:03.457Z,98603.88
2022-12-03T03:14:51.711Z,98598.66
2022-12-03T03:17:42.051Z,98592.56
2022-12-03T03:20:30.313Z,98599.50
2022-12-03T03:23:23.860Z,98596.03
2022-12-03T03:26:13.728Z,98607.25
2022-12-03T03:29:03.091Z,98596.97
2022-12-03T03:31:51.445Z,98602.22
2022-12-03T03:34:40.715Z,98602.22
2022-12-03T03:37:32.070Z,98596.03
2022-12-03T03:40:20.765Z,98596.97
2022-12-03T03:43:10.896Z,98595.25
2022-12-03T03:45:59.084Z,98597.88
2022-12-03T03:48:48.510Z,98597.78
2022-12-03T03:51:39.690Z,98590.88
2022-12-03T03:54:28.233Z,98597.78
2022-12-03T03:57:16.809Z,98596.97
2022-12-03T04:00:05.851Z,98595.16
2022-12-03T04:02:54.793Z,98597.78
2022-12-03T04:05:42.822Z,98595.94
2022-12-03T04:08:32.085Z,98586.50
2022-12-03T04:11:37.260Z,98589.09
2022-12-03T04:14:25.642Z,98581.25
2022-12-03T04:17:13.587Z,98578.63
2022-12-03T04:20:01.926Z,98574.31
2022-12-03T04:22:48.666Z,98572.53
2022-12-03T04:25:55.797Z,98570.97
2022-12-03T04:28:52.344Z,98574.31
2022-12-03T04:31:58.396Z,98572.72
2022-12-03T04:35:03.910Z,98564.88
2022-12-03T04:37:52.147Z,98571.88
2022-12-03T04:40:59.490Z,98571.88
2022-12-03T04:44:01.154Z,98565.91
2022-12-03T04:46:48.977Z,98575.44
2022-12-03T04:49:38.859Z,98562.44
2022-12-03T04:52:26.732Z,98568.44
2022-12-03T04:55:14.739Z,98570.19
2022-12-03T04:58:04.255Z,98574.50
2022-12-03T05:00:53.236Z,98575.34
2022-12-03T05:03:41.156Z,98571.06
2022-12-03T05:06:29.087Z,98559.81
2022-12-03T05:09:16.858Z,98567.66
2022-12-03T05:12:05.054Z,98566.00
2022-12-03T05:14:54.563Z,98561.63
2022-12-03T05:17:42.997Z,98554.66
2022-12-03T05:20:46.937Z,98552.91
2022-12-03T05:23:39.189Z,98555.63
2022-12-03T05:26:27.459Z,98559.19
2022-12-03T05:29:15.785Z,98558.31
2022-12-03T05:32:05.657Z,98564.50
2022-12-03T05:34:53.781Z,98557.66
2022-12-03T05:37:45.101Z,98557.47
2022-12-03T05:40:33.367Z,98564.41
2022-12-03T05:43:20.174Z,98561.97
2022-12-03T05:46:08.635Z,98564.59
2022-12-03T05:48:58.024Z,98562.34
2022-12-03T05:51:45.998Z,98566.66
2022-12-03T05:54:34.341Z,98570.22
2022-12-03T05:57:22.190Z,98564.03
2022-12-03T06:00:14.576Z,98561.41
2022-12-03T06:03:02.885Z,98556.94
2022-12-03T06:05:52.313Z,98554.50
2022-12-03T06:08:40.259Z,98553.84
2022-12-03T06:11:29.858Z,98554.50
2022-12-03T06:14:17.728Z,98554.50
2022-12-03T06:17:05.941Z,98553.66
2022-12-03T06:19:56.318Z,98556.53
2022-12-03T06:22:45.617Z,98550.94
2022-12-03T06:25:33.585Z,98561.78
2022-12-03T06:28:21.695Z,98556.25
2022-12-03T06:31:09.902Z,98561.59
2022-12-03T06:33:57.709Z,98559.94
2022-12-03T06:36:46.851Z,98559.94
2022-12-03T06:39:36.399Z,98568.91
2022-12-03T06:42:24.499Z,98575.63
2022-12-03T06:45:13.198Z,98578.16
2022-12-03T06:48:01.342Z,98575.44
2022-12-03T06:50:49.024Z,98583.22
2022-12-03T06:53:37.169Z,98582.38
2022-12-03T06:56:32.835Z,98597.13
2022-12-03T06:59:23.185Z,98593.03
2022-12-03T07:02:12.477Z,98588.91
2022-12-03T07:05:00.583Z,98595.63
2022-12-03T07:07:52.008Z,98592.06
2022-12-03T07:10:39.873Z,98594.69
2022-12-03T07:13:29.321Z,98600.69
2022-12-03T07:16:17.309Z,98596.41
2022-12-03T07:19:06.721Z,98603.97
2022-12-03T07:21:54.786Z,98610.03
2022-12-03T07:24:42.810Z,98607.34
2022-12-03T07:27:30.555Z,98597.72
2022-12-03T07:30:20.577Z,98597.72
2022-12-03T07:33:08.600Z,98595.09
2022-12-03T07:35:56.532Z,98597.72
2022-12-03T07:38:44.383Z,98607.34
2022-12-03T07:41:32.473Z,98612.47
2022-12-03T07:44:20.407Z,98604.63
2022-12-03T07:47:09.884Z,98606.31
2022-12-03T07:49:57.706Z,98595.00
2022-12-03T07:52:45.918Z,98600.06
2022-12-03T07:55:33.794Z,98595.66
2022-12-03T07:58:24.154Z,98594.91
2022-12-03T08:01:14.455Z,98598.38
2022-12-03T08:04:03.859Z,98602.56
2022-12-03T08:06:51.954Z,98593.78
2022-12-03T08:09:41.322Z,98597.16
2022-12-03T08:12:40.893Z,98590.03
2022-12-03T08:15:35.404Z,98590.03
2022-12-03T08:18:29.157Z,98584.78
2022-12-03T08:21:21.274Z,98588.16
2022-12-03T08:24:16.038Z,98592.47
2022-12-03T08:27:06.584Z,98589.84
2022-12-03T08:30:02.474Z,98581.97
2022-12-03T08:32:51.779Z,98589.84
2022-12-03T08:35:41.258Z,98580.22
2022-12-03T08:38:31.671Z,98582.75
2022-12-03T08:41:36.097Z,98576.56
2022-12-03T08:44:29.023Z,98574.69
2022-12-03T08:47:20.971Z,98570.22
2022-12-03T08:50:30.568Z,98571.88
2022-12-03T08:53:34.963Z,98570.03
2022-12-03T08:56:25.049Z,98562.97
2022-12-03T08:59:27.573Z,98564.47
2022-12-03T09:02:26.392Z,98567.00
2022-12-03T09:05:18.101Z,98567.84
2022-12-03T09:08:06.054Z,98573.75
2022-12-03T09:10:55.248Z,98569.22
2022-12-03T09:13:43.138Z,98565.69
2022-12-03T09:16:31.138Z,98574.94
2022-12-03T09:19:19.036Z,98573.19
2022-12-03T09:22:07.127Z,98586.06
2022-12-03T09:24:55.088Z,98582.53
2022-12-03T09:27:44.542Z,98581.47
2022-12-03T09:30:32.485Z,98592.81
2022-12-03T09:33:20.607Z,98580.44
2022-12-03T09:36:08.923Z,98585.50
2022-12-03T09:38:57.487Z,98582.56
2022-12-03T09:41:45.705Z,98587.81
2022-12-03T09:44:39.067Z,98582.28
2022-12-03T09:47:28.522Z,98577.81
2022-12-03T09:50:20.185Z,98582.84
2022-12-03T09:53:08.365Z,98575.63
2022-12-03T09:56:02.405Z,98578.91
2022-12-03T09:58:50.848Z,98571.97
2022-12-03T10:01:40.319Z,98577.75
2022-12-03T10:04:29.269Z,98578.50
2022-12-03T10:07:17.306Z,98576.91
2022-12-03T10:10:08.371Z,98566.22
2022-12-03T10:12:58.174Z,98566.97
2022-12-03T10:15:48.733Z,98553.75
2022-12-03T10:18:41.594Z,98552.81
2022-12-03T10:21:32.225Z,98554.22
2022-12-03T10:24:23.552Z,98545.50
2022-12-03T10:27:26.765Z,98546.44
2022-12-03T10:30:19.528Z,98533.31
2022-12-03T10:33:18.903Z,98534.81
2022-12-03T10:36:21.688Z,98519.56
2022-12-03T10:39:15.567Z,98508.88
2022-12-03T10:42:16.604Z,98501.97
2022-12-03T10:45:16.573Z,98505.97
2022-12-03T10:48:07.430Z,98509.97
2022-12-03T10:50:56.661Z,98508.06
2022-12-03T10:53:46.350Z,98497.38
2022-12-03T10:56:34.210Z,98492.97
2022-12-03T10:59:24.622Z,98491.94
2022-12-03T11:02:19.649Z,98492.03
2022-12-03T11:05:08.917Z,98494.84
2022-12-03T11:07:57.612Z,98499.50
2022-12-03T11:10:47.798Z,98498.84
2022-12-03T11:13:51.205Z,98495.50
2022-12-03T11:17:08.780Z,98495.19
2022-12-03T11:19:56.870Z,98501.38
2022-12-03T11:22:46.888Z,98494.16
2022-12-03T11:25:51.485Z,98491.41
2022-12-03T11:28:57.849Z,98484.16
2022-12-03T11:31:47.756Z,98473.00
2022-12-03T11:34:44.989Z,98472.59
2022-12-03T11:37:32.772Z,98462.97
2022-12-03T11:40:36.135Z,98466.94
2022-12-03T11:44:03.193Z,98464.44
2022-12-03T11:46:51.296Z,98454.97
2022-12-03T11:49:49.055Z,98458.34
2022-12-03T11:52:48.838Z,98458.78
2022-12-03T11:55:39.461Z,98455.63
2022-12-03T11:58:29.385Z,98449.31
2022-12-03T12:01:38.255Z,98445.31
2022-12-03T12:04:33.081Z,98445.97
2022-12-03T12:07:35.464Z,98447.75
2022-12-03T12:10:47.076Z,98439.66
2022-12-03T12:13:54.507Z,98430.81
2022-12-03T12:16:51.368Z,98435.66
2022-12-03T12:19:43.221Z,98438.19
2022-12-03T12:22:32.638Z,98428.63
2022-12-03T12:25:38.445Z,98426.81
2022-12-03T12:28:26.631Z,98434.41
2022-12-03T12:31:14.339Z,98427.06
2022-12-03T12:34:06.105Z,98430.41
2022-12-03T12:36:56.219Z,98420.53
2022-12-03T12:39:44.482Z,98427.69
2022-12-03T12:42:35.190Z,98418.53
2022-12-03T12:45:24.895Z,98414.44
2022-12-03T12:48:22.951Z,98421.91
2022-12-03T12:51:16.841Z,98419.50
2022-12-03T12:54:07.520Z,98418.78
2022-12-03T12:56:55.280Z,98411.94
2022-12-03T12:59:43.334Z,98409.63
2022-12-03T13:02:46.396Z,98409.81
2022-12-03T13:05:38.881Z,98412.56
2022-12-03T13:08:31.652Z,98412.38
2022-12-03T13:11:31.219Z,98397.03
2022-12-03T13:14:21.766Z,98397.31
2022-12-03T13:17:16.423Z,98395.25
2022-12-03T13:20:15.919Z,98393.78
2022-12-03T13:23:04.486Z,98392.28
2022-12-03T13:26:12.898Z,98387.28
2022-12-03T13:29:10.309Z,98385.06
2022-12-03T13:32:01.162Z,98387.34
2022-12-03T13:34:50.618Z,98387.34
2022-12-03T13:37:39.200Z,98392.41
2022-12-03T13:40:30.582Z,98384.41
2022-12-03T13:43:21.452Z,98381.56
2022-12-03T13:46:11.414Z,98380.72
2022-12-03T13:49:01.858Z,98385.06
2022-12-03T13:51:51.155Z,98383.78
2022-12-03T13:54:40.129Z,98390.72
2022-12-03T13:57:27.956Z,98392.00
2022-12-03T14:00:18.145Z,98392.94
2022-12-03T14:03:06.558Z,98389.69
2022-12-03T14:05:54.412Z,98387.78
2022-12-03T14:08:42.520Z,98390.31
2022-12-03T14:11:50.162Z,98379.06
2022-12-03T14:14:37.921Z,98377.63
2022-12-03T14:17:30.093Z,98381.91
2022-12-03T14:20:20.015Z,98386.31
2022-12-03T14:23:08.106Z,98389.03
2022-12-03T14:25:56.346Z,98385.06
2022-12-03T14:29:18.229Z,98383.78
2022-12-03T14:32:06.629Z,98380.25
2022-12-03T14:34:56.653Z,98380.25
2022-12-03T14:37:44.337Z,98385.50
2022-12-03T14:40:34.771Z,98395.78
2022-12-03T14:43:24.813Z,98386.22
2022-12-03T14:46:13.166Z,98387.38
2022-12-03T14:49:01.256Z,98378.88
2022-12-03T14:51:50.877Z,98388.09
2022-12-03T14:54:40.582Z,98381.81
2022-12-03T14:57:28.746Z,98383.59
2022-12-03T15:00:17.616Z,98385.28
2022-12-03T15:03:05.818Z,98385.25
2022-12-03T15:05:53.923Z,98380.84
2022-12-03T15:08:46.446Z,98383.38
2022-12-03T15:11:34.452Z,98385.03
2022-12-03T15:14:22.346Z,98389.84
2022-12-03T15:17:10.601Z,98390.69
2022-12-03T15:19:58.389Z,98385.16
2022-12-03T15:22:46.141Z,98389.44
2022-12-03T15:25:36.408Z,98374.19
2022-12-03T15:28:24.497Z,98379.75
2022-12-03T15:31:27.299Z,98380.03
2022-12-03T15:34:21.843Z,98366.94
2022-12-03T15:37:10.866Z,98369.25
2022-12-03T15:39:59.267Z,98378.94
2022-12-03T15:42:49.137Z,98378.13
2022-12-03T15:45:37.903Z,98381.41
2022-12-03T15:48:25.803Z,98391.19
2022-12-03T15:51:13.751Z,98394.03
2022-12-03T15:54:01.816Z,98387.69
2022-12-03T15:56:55.526Z,98387.78
2022-12-03T15:59:46.683Z,98381.09
2022-12-03T16:02:34.859Z,98386.75
2022-12-03T16:05:22.920Z,98389.91
2022-12-03T16:08:10.822Z,98391.69
2022-12-03T16:10:58.592Z,98385.59
2022-12-03T16:13:46.979Z,98405.06
2022-12-03T16:16:36.485Z,98399.44
2022-12-03T16:19:24.394Z,98396.66
2022-12-03T16:22:12.720Z,98401.50
2022-12-03T16:25:00.590Z,98402.09
2022-12-03T16:27:48.661Z,98394.56
2022-12-03T16:30:37.991Z,98401.19
2022-12-03T16:33:29.715Z,98403.41
2022-12-03T16:36:18.097Z,98408.06
2022-12-03T16:39:06.595Z,98408.69
2022-12-03T16:41:54.382Z,98404.28
2022-12-03T16:45:11.911Z,98408.06
2022-12-03T16:47:59.842Z,98399.25
2022-12-03T16:50:49.373Z,98396.81
2022-12-03T16:53:37.564Z,98397.78
2022-12-03T16:56:25.769Z,98394.78
2022-12-03T16:59:13.942Z,98399.81
2022-12-03T17:02:02.167Z,98394.78
2022-12-03T17:04:52.187Z,98395.59
2022-12-03T17:07:41.410Z,98393.72
2022-12-03T17:10:29.817Z,98393.13
2022-12-03T17:13:18.113Z,98381.69
2022-12-03T17:16:06.879Z,98386.94
2022-12-03T17:18:54.529Z,98382.66
2022-12-03T17:21:42.767Z,98377.81
2022-12-03T17:25:25.804Z,98387.03
2022-12-03T17:28:15.286Z,98380.81
2022-12-03T17:31:03.179Z,98370.88
2022-12-03T17:33:52.604Z,98373.28
2022-12-03T17:36:40.315Z,98369.19
2022-12-03T17:39:28.290Z,98369.84
2022-12-03T17:42:16.555Z,98366.94
2022-12-03T17:45:07.595Z,98364.91
2022-12-03T17:47:55.428Z,98365.88
2022-12-03T17:50:43.499Z,98365.41
2022-12-03T17:53:31.608Z,98359.16
2022-12-03T17:56:22.522Z,98348.47
2022-12-03T17:59:11.126Z,98342.59
2022-12-03T18:02:00.310Z,98340.16
2022-12-03T18:04:48.343Z,98347.06
2022-12-03T18:07:36.439Z,98350.53
2022-12-03T18:10:24.326Z,98352.66
2022-12-03T18:13:12.373Z,98349.56
2022-12-03T18:16:00.410Z,98361.22
2022-12-03T18:18:55.044Z,98356.63
2022-12-03T18:21:44.621Z,98363.56
2022-12-03T18:24:32.670Z,98364.31
2022-12-03T18:27:20.986Z,98366.66
2022-12-03T18:30:09.939Z,98360.59
2022-12-03T18:32:58.058Z,98357.25
2022-12-03T18:35:47.472Z,98352.84
2022-12-03T18:38:35.884Z,98359.19
2022-12-03T18:41:25.309Z,98357.53
2022-12-03T18:44:13.568Z,98352.00
2022-12-03T18:47:02.610Z,98341.72
2022-12-03T18:49:50.641Z,98341.53
2022-12-03T18:52:39.969Z,98344.13
2022-12-03T18:55:32.061Z,98335.97
2022-12-03T18:58:22.970Z,98342.06
2022-12-03T19:01:17.739Z,98346.56
2022-12-03T19:04:06.097Z,98337.75
2022-12-03T19:06:54.607Z,98336.81
2022-12-03T19:09:44.239Z,98333.47
2022-12-03T19:12:32.235Z,98339.44
2022-12-03T19:15:20.612Z,98335.44
2022-12-03T19:18:11.734Z,98337.44
2022-12-03T19:21:02.127Z,98338.16
2022-12-03T19:24:22.169Z,98338.34
2022-12-03T19:27:02.094Z,98338.44
2022-12-03T19:29:53.512Z,98329.56
2022-12-03T19:32:41.663Z,98328.63
2022-12-03T19:35:30.761Z,98332.09
2022-12-03T19:38:18.935Z,98328.53
2022-12-03T19:41:08.458Z,98318.69
2022-12-03T19:43:58.936Z,98320.06
2022-12-03T19:46:47.009Z,98317.53
2022-12-03T19:49:35.044Z,98313.44
2022-12-03T19:52:23.047Z,98303.28
2022-12-03T19:55:11.138Z,98317.84
2022-12-03T19:57:59.158Z,98310.63
2022-12-03T20:00:48.634Z,98309.69
2022-12-03T20:03:39.312Z,98312.09
2022-12-03T20:06:29.581Z,98304.94
2022-12-03T20:09:20.817Z,98302.34
2022-12-03T20:12:09.188Z,98296.19
2022-12-03T20:14:57.270Z,98303.84
2022-12-03T20:17:46.530Z,98298.59
2022-12-03T20:20:34.233Z,98300.25
2022-12-03T20:23:22.203Z,98310.53
2022-12-03T20:26:11.303Z,98309.47
2022-12-03T20:29:00.568Z,98305.91
2022-12-03T20:31:48.844Z,98305.91
2022-12-03T20:34:38.390Z,98305.16
2022-12-03T20:37:26.589Z,98309.47
2022-12-03T20:40:15.115Z,98311.34
2022-12-03T20:43:03.020Z,98318.25
2022-12-03T20:45:51.433Z,98317.13
2022-12-03T20:48:40.226Z,98309.16
2022-12-03T20:51:32.187Z,98311.69
2022-12-03T20:54:20.344Z,98291.66
2022-12-03T20:57:08.502Z,98298.50
2022-12-03T20:59:58.770Z,98301.72
2022-12-03T21:02:46.824Z,98296.47
2022-12-03T21:05:34.734Z,98281.81
2022-12-03T21:08:40.101Z,98282.47
2022-12-03T21:11:31.654Z,98285.28
2022-12-03T21:14:19.565Z,98287.06
2022-12-03T21:17:09.394Z,98287.06
2022-12-03T21:19:57.894Z,98285.28
2022-12-03T21:22:50.237Z,98274.06
2022-12-03T21:25:42.816Z,98274.81
2022-12-03T21:28:30.965Z,98273.84
2022-12-03T21:31:20.610Z,98279.94
2022-12-03T21:34:08.889Z,98279.94
2022-12-03T21:36:56.834Z,98278.88
2022-12-03T21:39:44.939Z,98270.28
2022-12-03T21:42:37.240Z,98270.19
2022-12-03T21:45:26.368Z,98270.06
2022-12-03T21:48:14.586Z,98259.59
2022-12-03T21:51:04.056Z,98268.41
2022-12-03T21:53:53.182Z,98264.84
2022-12-03T21:56:41.374Z,98265.56
2022-12-03T21:59:30.848Z,98257.63
2022-12-03T22:02:19.093Z,98255.81
2022-12-03T22:05:09.331Z,98267.13
2022-12-03T22:07:57.459Z,98255.81
2022-12-03T22:10:45.439Z,98262.75
2022-12-03T22:13:33.368Z,98258.31
2022-12-03T22:16:23.136Z,98259.19
2022-12-03T22:19:11.270Z,98260.13
2022-12-03T22:21:58.997Z,98254.78
2022-12-03T22:24:47.582Z,98254.88
2022-12-03T22:27:35.574Z,98248.50
2022-12-03T22:30:23.775Z,98251.22
2022-12-03T22:33:13.219Z,98251.22
2022-12-03T22:36:02.763Z,98246.81
2022-12-03T22:38:51.188Z,98237.16
2022-12-03T22:41:39.102Z,98219.66
2022-12-03T22:44:27.254Z,98215.97
2022-12-03T22:47:15.224Z,98215.97
2022-12-03T22:50:04.749Z,98215.88
2022-12-03T22:52:52.440Z,98217.69
2022-12-03T22:55:40.751Z,98218.50
2022-12-03T22:58:31.267Z,98200.13
2022-12-03T23:01:24.183Z,98208.84
2022-12-03T23:04:13.093Z,98205.38
2022-12-03T23:07:02.724Z,98202.75
2022-12-03T23:09:50.912Z,98204.47
2022-12-03T23:12:38.755Z,98205.28
2022-12-03T23:15:26.781Z,98214.00
2022-12-03T23:18:16.517Z,98211.38
2022-12-03T23:21:04.334Z,98212.22
2022-12-03T23:23:53.690Z,98204.25
2022-12-03T23:26:41.681Z,98211.16
2022-12-03T23:29:29.966Z,98212.81
2022-12-03T23:32:18.033Z,98212.94
2022-12-03T23:35:07.698Z,98214.72
2022-12-03T23:37:55.560Z,98212.81
2022-12-03T23:40:48.281Z,98217.25
2022-12-03T23:43:36.428Z,98213.78
2022-12-03T23:46:26.508Z,98207.78
2022-12-03T23:49:14.639Z,98207.59
2022-12-03T23:52:02.898Z,98204.00
2022-12-03T23:54:51.189Z,98204.00
2022-12-03T23:57:40.398Z,98197.84
